createdAt,value
2023-05-19T00:00:06.241Z,40.63
2023-05-19T00:00:16.516Z,40.53
2023-05-19T00:00:26.787Z,40.73
2023-05-19T00:00:37.059Z,40.94
2023-05-19T00:00:48.959Z,41.04
2023-05-19T00:00:57.580Z,41.14
2023-05-19T00:01:07.851Z,41.14
2023-05-19T00:01:18.133Z,41.04
2023-05-19T00:01:28.411Z,41.04
2023-05-19T00:01:38.680Z,40.94
2023-05-19T00:01:48.952Z,41.04
2023-05-19T00:01:59.285Z,41.04
2023-05-19T00:02:09.694Z,41.04
2023-05-19T00:02:19.873Z,40.83
2023-05-19T00:02:30.179Z,40.94
2023-05-19T00:02:40.627Z,41.16
2023-05-19T00:02:51.013Z,41.24
2023-05-19T00:03:01.353Z,41.06
2023-05-19T00:03:11.732Z,40.95
2023-05-19T00:03:22.030Z,40.85
2023-05-19T00:03:32.286Z,40.65
2023-05-19T00:03:42.599Z,40.55
2023-05-19T00:03:52.863Z,40.55
2023-05-19T00:04:03.182Z,40.55
2023-05-19T00:04:13.408Z,40.44
2023-05-19T00:04:23.680Z,40.34
2023-05-19T00:04:34.074Z,40.34
2023-05-19T00:04:44.318Z,40.24
2023-05-19T00:04:54.585Z,40.24
2023-05-19T00:05:04.850Z,40.24
2023-05-19T00:05:15.202Z,40.24
2023-05-19T00:05:25.492Z,40.14
2023-05-19T00:05:35.951Z,40.24
2023-05-19T00:05:46.305Z,40.44
2023-05-19T00:05:56.660Z,40.44
2023-05-19T00:06:06.986Z,40.24
2023-05-19T00:06:17.283Z,40.14
2023-05-19T00:06:27.556Z,40.24
2023-05-19T00:06:37.808Z,40.44
2023-05-19T00:06:48.183Z,40.65
2023-05-19T00:06:58.443Z,40.85
2023-05-19T00:07:08.707Z,40.95
2023-05-19T00:07:18.999Z,41.26
2023-05-19T00:07:29.268Z,41.26
2023-05-19T00:07:39.530Z,41.47
2023-05-19T00:07:49.801Z,41.56
2023-05-19T00:08:00.096Z,41.67
2023-05-19T00:08:10.393Z,41.77
2023-05-19T00:08:20.665Z,41.88
2023-05-19T00:08:30.940Z,41.88
2023-05-19T00:08:41.200Z,41.97
2023-05-19T00:08:51.475Z,42.08
2023-05-19T00:09:01.765Z,42.08
2023-05-19T00:09:12.052Z,42.08
2023-05-19T00:09:22.320Z,42.08
2023-05-19T00:09:32.602Z,42.08
2023-05-19T00:09:42.862Z,41.97
2023-05-19T00:09:53.133Z,41.88
2023-05-19T00:10:03.404Z,41.88
2023-05-19T00:10:13.688Z,41.97
2023-05-19T00:10:23.992Z,42.08
2023-05-19T00:10:34.483Z,42.18
2023-05-19T00:10:44.570Z,42.18
2023-05-19T00:10:54.832Z,42.20
2023-05-19T00:11:05.113Z,42.10
2023-05-19T00:11:15.370Z,41.77
2023-05-19T00:11:25.653Z,41.59
2023-05-19T00:11:35.915Z,41.38
2023-05-19T00:11:46.189Z,41.28
2023-05-19T00:11:56.530Z,41.18
2023-05-19T00:12:06.786Z,41.08
2023-05-19T00:12:17.059Z,41.08
2023-05-19T00:12:27.326Z,41.08
2023-05-19T00:12:37.591Z,41.18
2023-05-19T00:12:47.871Z,41.38
2023-05-19T00:12:58.140Z,41.38
2023-05-19T00:13:08.436Z,41.38
2023-05-19T00:13:18.689Z,41.49
2023-05-19T00:13:28.947Z,41.69
2023-05-19T00:13:39.242Z,41.69
2023-05-19T00:13:49.485Z,41.69
2023-05-19T00:13:59.806Z,41.49
2023-05-19T00:14:10.050Z,41.49
2023-05-19T00:14:20.324Z,41.38
2023-05-19T00:14:30.609Z,41.49
2023-05-19T00:14:40.856Z,41.49
2023-05-19T00:14:51.125Z,41.38
2023-05-19T00:15:01.414Z,41.28
2023-05-19T00:15:11.718Z,41.38
2023-05-19T00:15:21.984Z,41.49
2023-05-19T00:15:32.282Z,41.38
2023-05-19T00:15:42.589Z,41.38
2023-05-19T00:15:52.872Z,41.38
2023-05-19T00:16:03.172Z,41.28
2023-05-19T00:16:13.497Z,41.28
2023-05-19T00:16:23.859Z,41.28
2023-05-19T00:16:34.066Z,41.08
2023-05-19T00:16:44.339Z,40.87
2023-05-19T00:16:54.605Z,40.77
2023-05-19T00:17:04.873Z,40.77
2023-05-19T00:17:15.144Z,40.67
2023-05-19T00:17:25.423Z,40.67
2023-05-19T00:17:35.701Z,40.87
2023-05-19T00:17:46.024Z,41.09
2023-05-19T00:17:56.321Z,41.30
2023-05-19T00:18:06.617Z,41.50
2023-05-19T00:18:16.881Z,41.61
2023-05-19T00:18:27.148Z,41.50
2023-05-19T00:18:37.460Z,41.61
2023-05-19T00:18:47.758Z,41.71
2023-05-19T00:18:58.034Z,41.71
2023-05-19T00:19:08.334Z,41.61
2023-05-19T00:19:18.618Z,41.61
2023-05-19T00:19:28.975Z,41.61
2023-05-19T00:19:39.267Z,41.61
2023-05-19T00:19:49.519Z,41.81
2023-05-19T00:19:59.795Z,41.91
2023-05-19T00:20:10.099Z,42.02
2023-05-19T00:20:20.388Z,42.02
2023-05-19T00:20:30.805Z,42.12
2023-05-19T00:20:40.920Z,42.12
2023-05-19T00:20:51.190Z,42.12
2023-05-19T00:21:01.457Z,42.02
2023-05-19T00:21:11.763Z,41.91
2023-05-19T00:21:22.033Z,41.71
2023-05-19T00:21:32.266Z,41.50
2023-05-19T00:21:42.564Z,41.50
2023-05-19T00:21:52.809Z,41.50
2023-05-19T00:22:03.096Z,41.50
2023-05-19T00:22:13.353Z,41.40
2023-05-19T00:22:23.621Z,41.30
2023-05-19T00:22:33.883Z,41.20
2023-05-19T00:22:44.153Z,41.20
2023-05-19T00:22:54.429Z,41.20
2023-05-19T00:23:04.696Z,41.30
2023-05-19T00:23:14.964Z,41.40
2023-05-19T00:23:25.234Z,41.50
2023-05-19T00:23:35.508Z,41.50
2023-05-19T00:23:45.775Z,41.40
2023-05-19T00:23:56.059Z,41.50
2023-05-19T00:24:06.340Z,41.50
2023-05-19T00:24:16.590Z,41.61
2023-05-19T00:24:26.916Z,41.61
2023-05-19T00:24:37.165Z,41.40
2023-05-19T00:24:47.431Z,41.50
2023-05-19T00:24:57.713Z,41.61
2023-05-19T00:25:07.986Z,41.71
2023-05-19T00:25:18.280Z,41.71
2023-05-19T00:25:28.524Z,41.91
2023-05-19T00:25:38.808Z,42.14
2023-05-19T00:25:49.065Z,42.24
2023-05-19T00:25:59.331Z,42.22
2023-05-19T00:26:09.604Z,42.24
2023-05-19T00:26:19.869Z,42.24
2023-05-19T00:26:30.139Z,42.14
2023-05-19T00:26:40.424Z,42.14
2023-05-19T00:26:50.710Z,42.03
2023-05-19T00:27:00.963Z,42.14
2023-05-19T00:27:11.239Z,42.14
2023-05-19T00:27:21.516Z,41.93
2023-05-19T00:27:31.785Z,41.83
2023-05-19T00:27:42.041Z,41.73
2023-05-19T00:27:52.313Z,41.73
2023-05-19T00:28:02.582Z,41.63
2023-05-19T00:28:12.859Z,41.63
2023-05-19T00:28:23.129Z,41.73
2023-05-19T00:28:33.392Z,41.83
2023-05-19T00:28:43.663Z,41.73
2023-05-19T00:28:53.931Z,41.73
2023-05-19T00:29:04.217Z,41.63
2023-05-19T00:29:14.495Z,41.63
2023-05-19T00:29:24.780Z,41.73
2023-05-19T00:29:35.071Z,41.52
2023-05-19T00:29:45.318Z,41.22
2023-05-19T00:29:55.631Z,41.22
2023-05-19T00:30:05.879Z,41.42
2023-05-19T00:30:16.139Z,41.52
2023-05-19T00:30:26.413Z,41.52
2023-05-19T00:30:36.696Z,41.63
2023-05-19T00:30:46.977Z,41.52
2023-05-19T00:30:57.237Z,41.52
2023-05-19T00:31:07.491Z,41.63
2023-05-19T00:31:17.894Z,41.63
2023-05-19T00:31:28.196Z,41.42
2023-05-19T00:31:38.502Z,41.32
2023-05-19T00:31:48.834Z,41.32
2023-05-19T00:31:59.145Z,41.32
2023-05-19T00:32:09.540Z,41.32
2023-05-19T00:32:19.652Z,41.22
2023-05-19T00:32:29.940Z,41.22
2023-05-19T00:32:40.249Z,41.52
2023-05-19T00:32:50.577Z,41.73
2023-05-19T00:33:00.998Z,41.83
2023-05-19T00:33:11.298Z,41.93
2023-05-19T00:33:21.605Z,41.93
2023-05-19T00:33:31.877Z,41.93
2023-05-19T00:33:42.155Z,41.83
2023-05-19T00:33:52.482Z,41.83
2023-05-19T00:34:02.753Z,41.75
2023-05-19T00:34:13.036Z,41.64
2023-05-19T00:34:23.345Z,41.44
2023-05-19T00:34:33.591Z,41.44
2023-05-19T00:34:43.863Z,41.34
2023-05-19T00:34:54.132Z,41.34
2023-05-19T00:35:04.406Z,41.34
2023-05-19T00:35:14.669Z,41.34
2023-05-19T00:35:24.945Z,41.24
2023-05-19T00:35:35.218Z,41.24
2023-05-19T00:35:45.489Z,41.34
2023-05-19T00:35:55.750Z,41.24
2023-05-19T00:36:06.022Z,41.24
2023-05-19T00:36:16.288Z,41.24
2023-05-19T00:36:26.570Z,41.24
2023-05-19T00:36:36.860Z,41.34
2023-05-19T00:36:47.133Z,41.44
2023-05-19T00:36:57.377Z,41.54
2023-05-19T00:37:07.702Z,41.54
2023-05-19T00:37:17.944Z,41.44
2023-05-19T00:37:28.213Z,41.44
2023-05-19T00:37:38.489Z,41.34
2023-05-19T00:37:48.805Z,41.34
2023-05-19T00:37:59.096Z,41.64
2023-05-19T00:38:09.340Z,41.64
2023-05-19T00:38:19.618Z,41.64
2023-05-19T00:38:29.900Z,41.64
2023-05-19T00:38:40.186Z,41.75
2023-05-19T00:38:50.532Z,41.85
2023-05-19T00:39:00.784Z,41.75
2023-05-19T00:39:11.076Z,41.64
2023-05-19T00:39:21.335Z,41.44
2023-05-19T00:39:31.598Z,41.44
2023-05-19T00:39:41.863Z,41.64
2023-05-19T00:39:52.129Z,41.75
2023-05-19T00:40:02.413Z,41.75
2023-05-19T00:40:12.674Z,41.85
2023-05-19T00:40:22.944Z,41.95
2023-05-19T00:40:33.342Z,42.05
2023-05-19T00:40:43.581Z,42.16
2023-05-19T00:40:53.851Z,42.36
2023-05-19T00:41:04.119Z,42.36
2023-05-19T00:41:14.392Z,42.46
2023-05-19T00:41:24.669Z,42.36
2023-05-19T00:41:34.926Z,42.46
2023-05-19T00:41:45.201Z,42.36
2023-05-19T00:41:55.464Z,42.46
2023-05-19T00:42:05.738Z,42.57
2023-05-19T00:42:16.028Z,42.69
2023-05-19T00:42:26.289Z,42.87
2023-05-19T00:42:36.577Z,42.90
2023-05-19T00:42:46.832Z,42.90
2023-05-19T00:42:57.100Z,42.99
2023-05-19T00:43:07.374Z,42.90
2023-05-19T00:43:17.659Z,42.69
2023-05-19T00:43:27.927Z,42.58
2023-05-19T00:43:38.241Z,42.58
2023-05-19T00:43:48.516Z,42.58
2023-05-19T00:43:58.781Z,42.48
2023-05-19T00:44:09.045Z,42.48
2023-05-19T00:44:19.332Z,42.38
2023-05-19T00:44:29.586Z,42.38
2023-05-19T00:44:39.932Z,42.38
2023-05-19T00:44:50.161Z,42.38
2023-05-19T00:45:00.464Z,42.38
2023-05-19T00:45:10.728Z,42.28
2023-05-19T00:45:20.984Z,42.18
2023-05-19T00:45:31.242Z,41.87
2023-05-19T00:45:41.510Z,41.77
2023-05-19T00:45:51.784Z,41.87
2023-05-19T00:46:02.165Z,41.87
2023-05-19T00:46:12.493Z,41.77
2023-05-19T00:46:22.761Z,41.66
2023-05-19T00:46:33.071Z,41.56
2023-05-19T00:46:43.357Z,41.46
2023-05-19T00:46:53.682Z,41.46
2023-05-19T00:47:03.983Z,41.46
2023-05-19T00:47:14.268Z,41.66
2023-05-19T00:47:24.645Z,41.66
2023-05-19T00:47:35.031Z,41.66
2023-05-19T00:47:45.337Z,41.77
2023-05-19T00:47:55.640Z,41.87
2023-05-19T00:48:06.023Z,42.07
2023-05-19T00:48:16.263Z,41.97
2023-05-19T00:48:26.552Z,41.87
2023-05-19T00:48:36.826Z,41.87
2023-05-19T00:48:47.102Z,41.97
2023-05-19T00:48:57.378Z,42.07
2023-05-19T00:49:07.641Z,42.07
2023-05-19T00:49:17.918Z,41.97
2023-05-19T00:49:28.189Z,41.87
2023-05-19T00:49:38.461Z,41.87
2023-05-19T00:49:48.724Z,41.97
2023-05-19T00:49:58.999Z,42.10
2023-05-19T00:50:09.275Z,42.10
2023-05-19T00:50:19.536Z,41.99
2023-05-19T00:50:30.241Z,41.99
2023-05-19T00:50:40.107Z,41.99
2023-05-19T00:50:50.424Z,41.99
2023-05-19T00:51:00.646Z,41.89
2023-05-19T00:51:10.939Z,41.78
2023-05-19T00:51:21.196Z,41.68
2023-05-19T00:51:31.467Z,41.68
2023-05-19T00:51:41.734Z,41.58
2023-05-19T00:51:52.003Z,41.58
2023-05-19T00:52:02.275Z,41.48
2023-05-19T00:52:12.550Z,41.58
2023-05-19T00:52:22.814Z,41.58
2023-05-19T00:52:33.103Z,41.58
2023-05-19T00:52:43.372Z,41.38
2023-05-19T00:52:53.651Z,41.27
2023-05-19T00:53:03.935Z,41.27
2023-05-19T00:53:14.212Z,41.17
2023-05-19T00:53:24.517Z,41.17
2023-05-19T00:53:34.808Z,41.17
2023-05-19T00:53:45.065Z,41.27
2023-05-19T00:53:55.334Z,41.27
2023-05-19T00:54:05.605Z,41.17
2023-05-19T00:54:15.873Z,40.97
2023-05-19T00:54:26.136Z,40.97
2023-05-19T00:54:36.404Z,40.97
2023-05-19T00:54:46.678Z,41.07
2023-05-19T00:54:56.961Z,41.17
2023-05-19T00:55:07.217Z,41.17
2023-05-19T00:55:17.501Z,41.17
2023-05-19T00:55:27.763Z,41.17
2023-05-19T00:55:38.051Z,41.27
2023-05-19T00:55:48.307Z,41.38
2023-05-19T00:55:58.571Z,41.38
2023-05-19T00:56:08.840Z,41.48
2023-05-19T00:56:19.156Z,41.58
2023-05-19T00:56:29.403Z,41.78
2023-05-19T00:56:39.674Z,41.99
2023-05-19T00:56:49.940Z,42.10
2023-05-19T00:57:00.212Z,42.10
2023-05-19T00:57:10.479Z,42.10
2023-05-19T00:57:20.848Z,42.10
2023-05-19T00:57:31.111Z,42.10
2023-05-19T00:57:41.413Z,42.19
2023-05-19T00:57:51.684Z,42.30
2023-05-19T00:58:01.959Z,42.30
2023-05-19T00:58:12.220Z,42.30
2023-05-19T00:58:22.484Z,42.30
2023-05-19T00:58:32.997Z,42.52
2023-05-19T00:58:43.064Z,42.63
2023-05-19T00:58:53.330Z,42.73
2023-05-19T00:59:03.596Z,42.83
2023-05-19T00:59:13.868Z,42.93
2023-05-19T00:59:24.150Z,42.93
2023-05-19T00:59:34.416Z,42.83
2023-05-19T00:59:44.734Z,42.93
2023-05-19T00:59:54.978Z,43.04
2023-05-19T01:00:05.260Z,43.14
2023-05-19T01:00:15.517Z,43.14
2023-05-19T01:00:25.790Z,42.93
2023-05-19T01:00:36.108Z,42.83
2023-05-19T01:00:46.406Z,42.93
2023-05-19T01:00:56.721Z,43.04
2023-05-19T01:01:07.042Z,43.14
2023-05-19T01:01:17.523Z,43.14
2023-05-19T01:01:27.756Z,43.14
2023-05-19T01:01:37.966Z,43.04
2023-05-19T01:01:48.228Z,42.73
2023-05-19T01:01:58.518Z,42.52
2023-05-19T01:02:08.814Z,42.42
2023-05-19T01:02:19.110Z,42.52
2023-05-19T01:02:29.420Z,42.63
2023-05-19T01:02:39.801Z,42.52
2023-05-19T01:02:49.985Z,42.42
2023-05-19T01:03:00.339Z,42.22
2023-05-19T01:03:10.678Z,42.11
2023-05-19T01:03:21.011Z,41.91
2023-05-19T01:03:31.582Z,41.80
2023-05-19T01:03:41.787Z,41.80
2023-05-19T01:03:52.187Z,41.91
2023-05-19T01:04:02.660Z,41.80
2023-05-19T01:04:12.815Z,41.91
2023-05-19T01:04:23.090Z,41.80
2023-05-19T01:04:33.352Z,41.80
2023-05-19T01:04:43.629Z,41.91
2023-05-19T01:04:53.896Z,42.01
2023-05-19T01:05:04.186Z,42.01
2023-05-19T01:05:14.439Z,42.01
2023-05-19T01:05:24.721Z,42.11
2023-05-19T01:05:34.979Z,42.22
2023-05-19T01:05:45.269Z,42.22
2023-05-19T01:05:55.515Z,42.32
2023-05-19T01:06:05.801Z,42.42
2023-05-19T01:06:16.059Z,42.52
2023-05-19T01:06:26.321Z,42.65
2023-05-19T01:06:36.608Z,42.63
2023-05-19T01:06:46.881Z,42.63
2023-05-19T01:06:57.168Z,42.54
2023-05-19T01:07:07.465Z,42.52
2023-05-19T01:07:17.717Z,42.44
2023-05-19T01:07:27.985Z,42.52
2023-05-19T01:07:38.257Z,42.65
2023-05-19T01:07:48.528Z,42.63
2023-05-19T01:07:58.794Z,42.44
2023-05-19T01:08:09.068Z,42.13
2023-05-19T01:08:19.335Z,42.13
2023-05-19T01:08:29.609Z,42.34
2023-05-19T01:08:39.885Z,42.44
2023-05-19T01:08:50.145Z,42.44
2023-05-19T01:09:00.413Z,42.44
2023-05-19T01:09:10.685Z,42.34
2023-05-19T01:09:20.953Z,42.03
2023-05-19T01:09:31.231Z,41.93
2023-05-19T01:09:41.494Z,41.83
2023-05-19T01:09:51.763Z,41.83
2023-05-19T01:10:02.050Z,41.83
2023-05-19T01:10:12.312Z,41.83
2023-05-19T01:10:22.588Z,41.83
2023-05-19T01:10:33.112Z,41.83
2023-05-19T01:10:43.268Z,41.72
2023-05-19T01:10:53.537Z,41.83
2023-05-19T01:11:03.812Z,42.13
2023-05-19T01:11:14.120Z,42.24
2023-05-19T01:11:24.384Z,42.34
2023-05-19T01:11:34.677Z,42.34
2023-05-19T01:11:44.959Z,42.44
2023-05-19T01:11:55.248Z,42.54
2023-05-19T01:12:05.519Z,42.44
2023-05-19T01:12:15.770Z,42.44
2023-05-19T01:12:26.040Z,42.44
2023-05-19T01:12:36.307Z,42.13
2023-05-19T01:12:46.591Z,41.93
2023-05-19T01:12:56.942Z,41.72
2023-05-19T01:13:07.259Z,41.52
2023-05-19T01:13:17.535Z,41.41
2023-05-19T01:13:27.791Z,41.41
2023-05-19T01:13:40.298Z,41.41
2023-05-19T01:13:48.410Z,41.41
2023-05-19T01:13:58.685Z,41.62
2023-05-19T01:14:08.945Z,41.83
2023-05-19T01:14:19.249Z,41.83
2023-05-19T01:14:29.489Z,41.83
2023-05-19T01:14:39.789Z,42.05
2023-05-19T01:14:50.062Z,42.13
2023-05-19T01:15:00.306Z,42.24
2023-05-19T01:15:10.575Z,42.46
2023-05-19T01:15:20.851Z,42.54
2023-05-19T01:15:31.116Z,42.46
2023-05-19T01:15:41.387Z,42.46
2023-05-19T01:15:51.653Z,42.46
2023-05-19T01:16:02.000Z,42.36
2023-05-19T01:16:12.277Z,42.36
2023-05-19T01:16:22.780Z,42.46
2023-05-19T01:16:32.982Z,42.56
2023-05-19T01:16:43.256Z,42.66
2023-05-19T01:16:53.636Z,42.66
2023-05-19T01:17:03.888Z,42.56
2023-05-19T01:17:14.152Z,42.66
2023-05-19T01:17:24.427Z,42.56
2023-05-19T01:17:34.739Z,42.46
2023-05-19T01:17:45.082Z,42.46
2023-05-19T01:17:55.384Z,42.46
2023-05-19T01:18:05.663Z,42.36
2023-05-19T01:18:15.929Z,42.46
2023-05-19T01:18:26.197Z,42.56
2023-05-19T01:18:36.484Z,42.66
2023-05-19T01:18:46.804Z,42.77
2023-05-19T01:18:57.098Z,42.87
2023-05-19T01:19:07.453Z,42.97
2023-05-19T01:19:17.826Z,42.97
2023-05-19T01:19:27.989Z,42.87
2023-05-19T01:19:38.223Z,42.97
2023-05-19T01:19:48.495Z,42.97
2023-05-19T01:19:58.762Z,43.07
2023-05-19T01:20:09.027Z,42.87
2023-05-19T01:20:19.297Z,42.87
2023-05-19T01:20:29.647Z,42.77
2023-05-19T01:20:40.043Z,42.77
2023-05-19T01:20:50.315Z,42.66
2023-05-19T01:21:00.594Z,42.56
2023-05-19T01:21:10.864Z,42.46
2023-05-19T01:21:21.133Z,42.36
2023-05-19T01:21:31.410Z,42.46
2023-05-19T01:21:41.698Z,42.66
2023-05-19T01:21:51.961Z,42.66
2023-05-19T01:22:02.223Z,42.66
2023-05-19T01:22:12.493Z,42.87
2023-05-19T01:22:22.775Z,42.97
2023-05-19T01:22:33.120Z,42.97
2023-05-19T01:22:43.380Z,42.97
2023-05-19T01:22:53.642Z,42.87
2023-05-19T01:23:03.917Z,42.77
2023-05-19T01:23:14.186Z,42.87
2023-05-19T01:23:24.450Z,42.87
2023-05-19T01:23:41.358Z,42.87
2023-05-19T01:23:45.145Z,42.66
2023-05-19T01:23:55.418Z,42.66
2023-05-19T01:24:05.692Z,42.66
2023-05-19T01:24:15.958Z,42.56
2023-05-19T01:24:26.225Z,42.56
2023-05-19T01:24:46.710Z,42.48
2023-05-19T01:24:57.011Z,42.48
2023-05-19T01:25:07.283Z,42.38
2023-05-19T01:25:17.562Z,42.38
2023-05-19T01:25:27.820Z,42.48
2023-05-19T01:25:38.117Z,42.48
2023-05-19T01:25:48.397Z,42.58
2023-05-19T01:25:58.653Z,42.69
2023-05-19T01:26:08.931Z,42.79
2023-05-19T01:26:19.196Z,42.79
2023-05-19T01:26:29.463Z,42.79
2023-05-19T01:26:39.733Z,42.79
2023-05-19T01:26:50.004Z,42.79
2023-05-19T01:27:00.274Z,42.58
2023-05-19T01:27:10.546Z,42.38
2023-05-19T01:27:20.834Z,42.27
2023-05-19T01:27:31.108Z,42.27
2023-05-19T01:27:41.370Z,42.27
2023-05-19T01:27:51.634Z,42.07
2023-05-19T01:28:01.908Z,42.07
2023-05-19T01:28:12.181Z,42.07
2023-05-19T01:28:22.453Z,41.86
2023-05-19T01:28:32.749Z,41.86
2023-05-19T01:28:42.992Z,41.97
2023-05-19T01:28:53.284Z,41.97
2023-05-19T01:29:03.531Z,41.86
2023-05-19T01:29:13.805Z,41.66
2023-05-19T01:29:24.081Z,41.46
2023-05-19T01:29:34.347Z,41.56
2023-05-19T01:29:44.645Z,41.46
2023-05-19T01:29:54.996Z,41.46
2023-05-19T01:30:05.214Z,41.56
2023-05-19T01:30:15.500Z,41.46
2023-05-19T01:30:25.805Z,41.46
2023-05-19T01:30:36.059Z,41.46
2023-05-19T01:30:46.332Z,41.46
2023-05-19T01:30:56.592Z,41.46
2023-05-19T01:31:06.865Z,41.25
2023-05-19T01:31:17.137Z,41.35
2023-05-19T01:31:27.460Z,41.46
2023-05-19T01:31:37.731Z,41.56
2023-05-19T01:31:48.139Z,41.56
2023-05-19T01:31:58.476Z,41.46
2023-05-19T01:32:08.772Z,41.56
2023-05-19T01:32:19.092Z,41.66
2023-05-19T01:32:29.375Z,41.68
2023-05-19T01:32:39.660Z,41.68
2023-05-19T01:32:49.934Z,41.68
2023-05-19T01:33:00.317Z,41.68
2023-05-19T01:33:10.442Z,41.68
2023-05-19T01:33:20.760Z,41.78
2023-05-19T01:33:30.991Z,41.88
2023-05-19T01:33:41.267Z,41.99
2023-05-19T01:33:51.525Z,41.99
2023-05-19T01:34:01.797Z,41.99
2023-05-19T01:34:12.065Z,41.99
2023-05-19T01:34:22.330Z,42.09
2023-05-19T01:34:32.665Z,42.09
2023-05-19T01:34:42.922Z,42.09
2023-05-19T01:34:53.207Z,41.99
2023-05-19T01:35:03.514Z,41.88
2023-05-19T01:35:13.777Z,41.88
2023-05-19T01:35:24.067Z,41.78
2023-05-19T01:35:34.336Z,41.88
2023-05-19T01:35:44.596Z,41.78
2023-05-19T01:35:54.867Z,41.78
2023-05-19T01:36:05.133Z,41.88
2023-05-19T01:36:15.419Z,41.88
2023-05-19T01:36:25.674Z,41.88
2023-05-19T01:36:35.961Z,41.99
2023-05-19T01:36:46.221Z,41.88
2023-05-19T01:36:56.484Z,41.88
2023-05-19T01:37:06.761Z,41.99
2023-05-19T01:37:17.031Z,41.99
2023-05-19T01:37:27.300Z,41.88
2023-05-19T01:37:37.585Z,41.88
2023-05-19T01:37:47.849Z,41.88
2023-05-19T01:37:58.118Z,42.09
2023-05-19T01:38:08.394Z,42.09
2023-05-19T01:38:18.665Z,42.09
2023-05-19T01:38:28.925Z,42.09
2023-05-19T01:38:39.223Z,42.19
2023-05-19T01:38:49.476Z,42.40
2023-05-19T01:38:59.745Z,42.40
2023-05-19T01:39:10.035Z,42.40
2023-05-19T01:39:20.299Z,42.29
2023-05-19T01:39:30.588Z,42.19
2023-05-19T01:39:40.896Z,42.09
2023-05-19T01:39:51.156Z,42.19
2023-05-19T01:40:01.434Z,42.19
2023-05-19T01:40:11.703Z,42.29
2023-05-19T01:40:21.968Z,42.50
2023-05-19T01:40:32.583Z,42.50
2023-05-19T01:40:42.544Z,42.50
2023-05-19T01:40:52.815Z,42.42
2023-05-19T01:41:03.088Z,42.21
2023-05-19T01:41:13.349Z,42.19
2023-05-19T01:41:23.624Z,42.32
2023-05-19T01:41:33.898Z,42.42
2023-05-19T01:41:44.190Z,42.52
2023-05-19T01:41:54.435Z,42.52
2023-05-19T01:42:04.720Z,42.52
2023-05-19T01:42:14.976Z,42.42
2023-05-19T01:42:25.246Z,42.42
2023-05-19T01:42:35.523Z,42.21
2023-05-19T01:42:45.783Z,42.11
2023-05-19T01:42:57.558Z,42.21
2023-05-19T01:43:06.383Z,42.32
2023-05-19T01:43:16.646Z,42.52
2023-05-19T01:43:26.918Z,42.42
2023-05-19T01:43:37.187Z,42.52
2023-05-19T01:43:47.477Z,42.42
2023-05-19T01:43:57.749Z,42.32
2023-05-19T01:44:08.062Z,42.42
2023-05-19T01:44:18.353Z,42.42
2023-05-19T01:44:28.642Z,42.32
2023-05-19T01:44:38.916Z,42.21
2023-05-19T01:44:49.183Z,42.21
2023-05-19T01:44:59.475Z,42.21
2023-05-19T01:45:09.719Z,42.32
2023-05-19T01:45:20.007Z,42.42
2023-05-19T01:45:30.263Z,42.42
2023-05-19T01:45:40.588Z,42.42
2023-05-19T01:45:50.838Z,42.52
2023-05-19T01:46:01.154Z,42.62
2023-05-19T01:46:11.547Z,42.52
2023-05-19T01:46:21.722Z,42.42
2023-05-19T01:46:32.064Z,42.42
2023-05-19T01:46:42.248Z,42.32
2023-05-19T01:46:52.510Z,42.32
2023-05-19T01:47:02.778Z,42.21
2023-05-19T01:47:13.033Z,42.21
2023-05-19T01:47:23.302Z,42.11
2023-05-19T01:47:33.638Z,42.21
2023-05-19T01:47:43.939Z,42.32
2023-05-19T01:47:54.265Z,42.42
2023-05-19T01:48:04.601Z,42.52
2023-05-19T01:48:14.915Z,42.52
2023-05-19T01:48:25.153Z,42.62
2023-05-19T01:48:35.419Z,42.62
2023-05-19T01:48:45.722Z,42.52
2023-05-19T01:48:56.011Z,42.52
2023-05-19T01:49:06.286Z,42.62
2023-05-19T01:49:16.556Z,42.72
2023-05-19T01:49:26.829Z,42.83
2023-05-19T01:49:37.093Z,42.83
2023-05-19T01:49:47.365Z,42.83
2023-05-19T01:49:57.634Z,42.83
2023-05-19T01:50:07.904Z,42.95
2023-05-19T01:50:18.173Z,42.93
2023-05-19T01:50:28.442Z,42.93
2023-05-19T01:50:38.714Z,42.93
2023-05-19T01:50:48.992Z,42.95
2023-05-19T01:50:59.279Z,42.95
2023-05-19T01:51:09.522Z,42.93
2023-05-19T01:51:19.793Z,42.93
2023-05-19T01:51:30.070Z,43.05
2023-05-19T01:51:40.346Z,43.05
2023-05-19T01:51:50.615Z,43.16
2023-05-19T01:52:00.889Z,43.16
2023-05-19T01:52:11.161Z,43.36
2023-05-19T01:52:21.431Z,43.36
2023-05-19T01:52:31.707Z,43.36
2023-05-19T01:52:41.979Z,43.46
2023-05-19T01:52:52.250Z,43.57
2023-05-19T01:53:02.521Z,43.67
2023-05-19T01:53:12.799Z,43.67
2023-05-19T01:53:23.083Z,43.67
2023-05-19T01:53:33.344Z,43.67
2023-05-19T01:53:43.616Z,43.67
2023-05-19T01:53:53.885Z,43.57
2023-05-19T01:54:04.153Z,43.46
2023-05-19T01:54:14.425Z,43.36
2023-05-19T01:54:24.695Z,43.16
2023-05-19T01:54:34.970Z,43.05
2023-05-19T01:54:45.242Z,42.95
2023-05-19T01:54:55.516Z,42.85
2023-05-19T01:55:05.801Z,42.74
2023-05-19T01:55:16.074Z,42.74
2023-05-19T01:55:26.326Z,42.64
2023-05-19T01:55:36.608Z,42.54
2023-05-19T01:55:46.868Z,42.64
2023-05-19T01:55:57.142Z,42.74
2023-05-19T01:56:07.409Z,42.74
2023-05-19T01:56:17.681Z,42.74
2023-05-19T01:56:27.953Z,42.74
2023-05-19T01:56:38.215Z,42.64
2023-05-19T01:56:48.504Z,42.64
2023-05-19T01:56:58.773Z,42.74
2023-05-19T01:57:09.038Z,42.85
2023-05-19T01:57:19.310Z,42.95
2023-05-19T01:57:29.577Z,42.95
2023-05-19T01:57:39.843Z,42.85
2023-05-19T01:57:50.148Z,42.95
2023-05-19T01:58:00.407Z,43.05
2023-05-19T01:58:10.691Z,43.26
2023-05-19T01:58:20.970Z,43.36
2023-05-19T01:58:31.227Z,43.36
2023-05-19T01:58:41.506Z,43.57
2023-05-19T01:58:51.814Z,43.57
2023-05-19T01:59:02.119Z,43.36
2023-05-19T01:59:12.377Z,43.26
2023-05-19T01:59:22.641Z,43.36
2023-05-19T01:59:32.909Z,43.57
2023-05-19T01:59:43.204Z,43.36
2023-05-19T01:59:53.454Z,43.05
2023-05-19T02:00:03.744Z,42.95
2023-05-19T02:00:13.999Z,42.95
2023-05-19T02:00:24.270Z,42.85
2023-05-19T02:00:34.769Z,42.85
2023-05-19T02:00:44.765Z,42.86
2023-05-19T02:00:55.088Z,42.74
2023-05-19T02:01:05.437Z,42.77
2023-05-19T02:01:15.774Z,42.77
2023-05-19T02:01:26.152Z,42.77
2023-05-19T02:01:36.464Z,42.86
2023-05-19T02:01:46.912Z,42.86
2023-05-19T02:01:57.035Z,42.97
2023-05-19T02:02:07.299Z,43.07
2023-05-19T02:02:17.627Z,43.18
2023-05-19T02:02:27.926Z,43.18
2023-05-19T02:02:38.208Z,43.07
2023-05-19T02:02:48.519Z,43.07
2023-05-19T02:02:58.786Z,43.18
2023-05-19T02:03:09.128Z,43.28
2023-05-19T02:03:19.388Z,43.38
2023-05-19T02:03:29.753Z,43.38
2023-05-19T02:03:40.021Z,43.28
2023-05-19T02:03:50.294Z,43.38
2023-05-19T02:04:00.601Z,43.48
2023-05-19T02:04:10.933Z,43.48
2023-05-19T02:04:21.262Z,43.38
2023-05-19T02:04:31.565Z,43.38
2023-05-19T02:04:41.934Z,43.38
2023-05-19T02:04:52.297Z,43.38
2023-05-19T02:05:02.404Z,43.18
2023-05-19T02:05:12.677Z,43.18
2023-05-19T02:05:22.954Z,43.07
2023-05-19T02:05:33.228Z,42.97
2023-05-19T02:05:43.490Z,42.97
2023-05-19T02:05:53.807Z,42.86
2023-05-19T02:06:04.079Z,42.66
2023-05-19T02:06:14.329Z,42.56
2023-05-19T02:06:24.610Z,42.56
2023-05-19T02:06:34.873Z,42.56
2023-05-19T02:06:45.135Z,42.56
2023-05-19T02:06:55.409Z,42.56
2023-05-19T02:07:05.684Z,42.46
2023-05-19T02:07:15.964Z,42.56
2023-05-19T02:07:26.235Z,42.66
2023-05-19T02:07:36.522Z,42.77
2023-05-19T02:07:46.797Z,42.97
2023-05-19T02:07:57.059Z,42.97
2023-05-19T02:08:07.329Z,43.07
2023-05-19T02:08:17.600Z,43.28
2023-05-19T02:08:27.877Z,43.48
2023-05-19T02:08:38.144Z,43.59
2023-05-19T02:08:48.417Z,43.79
2023-05-19T02:08:58.697Z,43.90
2023-05-19T02:09:08.954Z,44.00
2023-05-19T02:09:19.231Z,44.20
2023-05-19T02:09:29.530Z,44.31
2023-05-19T02:09:39.793Z,44.31
2023-05-19T02:09:50.036Z,44.41
2023-05-19T02:10:00.316Z,44.41
2023-05-19T02:10:10.588Z,44.20
2023-05-19T02:10:20.860Z,43.90
2023-05-19T02:10:31.518Z,43.69
2023-05-19T02:10:41.537Z,43.59
2023-05-19T02:10:51.800Z,43.48
2023-05-19T02:11:02.083Z,43.48
2023-05-19T02:11:12.344Z,43.48
2023-05-19T02:11:22.608Z,43.38
2023-05-19T02:11:32.883Z,43.38
2023-05-19T02:11:43.151Z,43.38
2023-05-19T02:11:53.483Z,43.38
2023-05-19T02:12:03.720Z,43.30
2023-05-19T02:12:14.044Z,43.07
2023-05-19T02:12:24.324Z,42.89
2023-05-19T02:12:34.592Z,42.89